Time;durP1;ratioP1;P1;durP2;ratioP2;P2;SDS_P1;SDS_P2;PMS_P1;PMS_P2;Temp;Humidity;BMP_temperature;BMP_pressure;BME280_temperature;BME280_humidity;BME280_pressure;Samples;Min_cycle;Max_cycle;Signal;HPM_P1;HPM_P2
2021/10/09 00:00:07;;;;;;;26.80;12.30;;;;;;;3.23;65.17;102306.09;1742032;82;27338;-50
2021/10/09 00:02:36;;;;;;;23.32;13.40;;;;;;;3.25;65.30;102308.56;1741999;81;25652;-54
2021/10/09 00:05:05;;;;;;;19.98;12.10;;;;;;;3.25;65.41;102309.41;1741975;82;25605;-54
2021/10/09 00:07:34;;;;;;;23.38;13.00;;;;;;;3.25;65.61;102306.73;1742103;81;25606;-52
2021/10/09 00:10:04;;;;;;;32.85;14.53;;;;;;;3.27;65.66;102308.68;1742194;82;25535;-53
2021/10/09 00:12:30;;;;;;;25.37;12.28;;;;;;;3.27;65.72;102307.34;1741893;82;27223;-53
2021/10/09 00:14:57;;;;;;;23.00;12.40;;;;;;;3.28;65.52;102310.30;1741930;82;25807;-52
2021/10/09 00:17:28;;;;;;;24.63;10.88;;;;;;;3.25;65.66;102309.41;1741971;82;25618;-53
2021/10/09 00:19:58;;;;;;;25.62;11.35;;;;;;;3.27;65.58;102306.50;1741935;81;26362;-54
2021/10/09 00:22:25;;;;;;;25.45;12.20;;;;;;;3.25;65.60;102303.22;1742046;82;25668;-55
2021/10/09 00:24:53;;;;;;;22.52;12.07;;;;;;;3.26;65.76;102302.20;1741961;82;28009;-55
2021/10/09 00:27:20;;;;;;;22.00;12.68;;;;;;;3.32;65.74;102311.55;1741934;82;25696;-54
2021/10/09 00:29:47;;;;;;;22.67;13.28;;;;;;;3.31;65.66;102309.89;1742005;82;25628;-53
2021/10/09 00:32:13;;;;;;;23.55;13.00;;;;;;;3.33;65.74;102308.34;1742039;82;26474;-54
2021/10/09 00:34:40;;;;;;;25.32;14.20;;;;;;;3.30;65.89;102306.08;1742028;82;25654;-54
2021/10/09 00:37:07;;;;;;;25.52;14.53;;;;;;;3.30;65.85;102303.41;1741985;82;28083;-54
2021/10/09 00:39:34;;;;;;;28.15;14.30;;;;;;;3.26;65.80;102301.67;1741961;82;25891;-53
2021/10/09 00:42:01;;;;;;;28.77;14.85;;;;;;;3.25;65.33;102306.73;1751667;81;25613;-55
2021/10/09 00:44:28;;;;;;;30.82;15.55;;;;;;;3.22;65.59;102301.80;1752022;81;26274;-52
2021/10/09 00:47:02;;;;;;;32.90;16.85;;;;;;;3.17;65.64;102304.28;1752128;81;25616;-55
2021/10/09 00:49:31;;;;;;;37.55;17.87;;;;;;;3.08;65.52;102302.36;1752091;81;27932;-54
2021/10/09 00:52:04;;;;;;;27.27;13.80;;;;;;;3.03;65.65;102298.64;1752002;81;25671;-55
2021/10/09 00:54:34;;;;;;;23.25;13.38;;;;;;;2.97;65.71;102297.11;1752078;81;25638;-54
2021/10/09 00:57:05;;;;;;;25.52;13.32;;;;;;;2.94;65.49;102297.52;1752089;81;25603;-51
2021/10/09 00:59:32;;;;;;;23.52;13.15;;;;;;;2.89;65.61;102297.33;1752222;81;25630;-53
2021/10/09 01:02:03;;;;;;;26.62;13.22;;;;;;;2.90;65.57;102299.51;1752080;81;27362;-53
2021/10/09 01:04:35;;;;;;;30.20;14.28;;;;;;;2.87;65.63;102296.72;1752008;81;25536;-53
2021/10/09 01:07:04;;;;;;;33.02;16.23;;;;;;;2.83;65.68;102300.85;1752144;81;25492;-56
2021/10/09 01:09:32;;;;;;;27.67;14.05;;;;;;;2.82;65.70;102305.88;1752128;81;25713;-55
2021/10/09 01:12:00;;;;;;;22.90;13.58;;;;;;;2.80;65.68;102302.59;1752114;81;25540;-54
2021/10/09 01:14:27;;;;;;;30.45;14.93;;;;;;;2.78;65.89;102304.14;1752086;81;27944;-55
2021/10/09 01:16:55;;;;;;;22.82;12.65;;;;;;;2.73;66.12;102307.14;1751958;81;25650;-54
2021/10/09 01:19:21;;;;;;;26.73;14.28;;;;;;;2.69;66.16;102309.41;1752091;81;25658;-54
2021/10/09 01:21:51;;;;;;;30.57;14.70;;;;;;;2.66;66.46;102302.31;1752018;81;25635;-53
2021/10/09 01:24:18;;;;;;;;;;;;;;;2.63;66.54;102299.53;1754738;81;25633;-55
2021/10/09 01:26:47;;;;;;;24.95;13.03;;;;;;;2.64;66.76;102307.02;1752028;81;27374;-54
2021/10/09 01:29:15;;;;;;;29.87;14.58;;;;;;;2.59;66.68;102303.12;1752057;81;25987;-54
2021/10/09 01:31:43;;;;;;;27.52;13.25;;;;;;;2.58;66.90;102301.47;1752043;81;25522;-53
2021/10/09 01:34:09;;;;;;;26.82;13.13;;;;;;;2.58;67.10;102302.81;1751979;81;25611;-54
2021/10/09 01:36:39;;;;;;;26.42;13.10;;;;;;;2.58;66.84;102304.67;1752086;81;25649;-51
2021/10/09 01:39:10;;;;;;;26.20;12.80;;;;;;;2.58;66.99;102302.00;1752017;81;27336;-54
2021/10/09 01:41:44;;;;;;;26.20;14.07;;;;;;;2.56;67.01;102298.72;1751897;81;25616;-54
2021/10/09 01:44:12;;;;;;;24.52;14.07;;;;;;;2.58;67.04;102302.81;1752061;81;25679;-50
2021/10/09 01:46:40;;;;;;;30.45;13.80;;;;;;;2.58;67.13;102299.33;1751968;81;25617;-54
2021/10/09 01:49:10;;;;;;;21.95;12.33;;;;;;;2.57;67.08;102299.84;1752063;81;25529;-54
2021/10/09 01:51:37;;;;;;;;;;;;;;;2.57;66.92;102297.67;1754636;81;28049;-56
2021/10/09 01:54:04;;;;;;;24.67;13.65;;;;;;;2.56;67.00;102299.53;1751972;81;25621;-55
2021/10/09 01:56:31;;;;;;;26.42;13.35;;;;;;;2.54;67.08;102300.25;1751982;81;25474;-55
2021/10/09 01:58:57;;;;;;;29.37;14.05;;;;;;;2.52;67.11;102303.66;1751999;81;25676;-53
2021/10/09 02:01:28;;;;;;;24.37;12.73;;;;;;;2.47;67.12;102301.27;1752045;81;25716;-54
2021/10/09 02:03:54;;;;;;;24.95;13.32;;;;;;;2.43;67.26;102297.70;1752015;81;27315;-54
2021/10/09 02:06:21;;;;;;;31.35;14.38;;;;;;;2.43;67.40;102299.52;1751980;81;25883;-52
2021/10/09 02:08:48;;;;;;;27.32;14.73;;;;;;;2.38;67.41;102291.30;1752081;81;25498;-56
2021/10/09 02:11:18;;;;;;;30.90;14.73;;;;;;;2.35;67.42;102295.71;1752063;81;25721;-52
2021/10/09 02:19:09;;;;;;;27.05;13.62;;;;;;;2.23;67.66;102299.50;1751907;81;25693;-54
2021/10/09 02:24:28;;;;;;;22.42;13.32;;;;;;;2.17;67.69;102293.14;1752017;81;25612;-53
2021/10/09 02:26:48;;;;;;;24.40;13.58;;;;;;;2.14;67.79;102290.05;1750623;81;25477;-53
2021/10/09 02:29:15;;;;;;;26.90;13.35;;;;;;;2.13;67.78;102292.41;1752013;81;27342;-55
2021/10/09 02:31:42;;;;;;;25.45;12.65;;;;;;;2.11;67.90;102287.78;1751942;81;25466;-56
2021/10/09 02:34:09;;;;;;;22.95;12.80;;;;;;;2.08;67.82;102290.86;1752011;81;25454;-55
2021/10/09 02:36:36;;;;;;;24.25;12.35;;;;;;;2.02;67.96;102291.98;1751994;81;25604;-53
2021/10/09 02:39:05;;;;;;;26.62;13.55;;;;;;;2.02;67.88;102293.83;1751983;81;25715;-56
2021/10/09 02:41:31;;;;;;;29.25;13.40;;;;;;;2.01;68.17;102294.84;1752050;81;27926;-55
2021/10/09 02:43:58;;;;;;;29.48;13.45;;;;;;;1.98;68.00;102297.42;1751900;81;25915;-53
2021/10/09 02:46:25;;;;;;;24.98;13.20;;;;;;;1.95;67.68;102299.16;1751946;81;25574;-55
2021/10/09 02:48:52;;;;;;;23.45;12.70;;;;;;;1.94;67.87;102302.02;1751948;81;25616;-51
2021/10/09 02:51:18;;;;;;;25.88;14.38;;;;;;;1.91;68.01;102302.42;1752109;81;25617;-52
2021/10/09 02:53:45;;;;;;;26.93;13.58;;;;;;;1.85;68.08;102300.05;1752009;81;27969;-53
2021/10/09 02:56:12;;;;;;;23.25;12.98;;;;;;;1.81;68.04;102302.83;1751859;81;25460;-54
2021/10/09 02:58:38;;;;;;;27.77;13.98;;;;;;;1.79;68.11;102288.87;1752081;81;25640;-55
2021/10/09 03:01:05;;;;;;;23.52;12.93;;;;;;;1.73;68.03;102287.80;1751932;81;25616;-54
2021/10/09 03:03:31;;;;;;;24.47;12.63;;;;;;;1.71;68.19;102285.86;1752041;81;25628;-54
2021/10/09 03:05:58;;;;;;;24.80;12.65;;;;;;;1.68;68.10;102288.40;1751950;81;27320;-52
2021/10/09 03:08:25;;;;;;;27.15;11.95;;;;;;;1.67;68.52;102287.30;1751911;81;25526;-53
2021/10/09 03:10:51;;;;;;;26.02;13.13;;;;;;;1.65;68.22;102285.31;1751962;81;25714;-54
2021/10/09 03:13:18;;;;;;;26.73;13.00;;;;;;;1.66;68.43;102290.97;1751972;81;26220;-53
2021/10/09 03:15:45;;;;;;;22.60;12.70;;;;;;;1.64;68.46;102291.17;1751975;81;25455;-54
2021/10/09 03:18:11;;;;;;;24.35;13.65;;;;;;;1.64;68.76;102290.36;1752001;81;27328;-54
2021/10/09 03:20:38;;;;;;;26.30;14.63;;;;;;;1.61;68.80;102282.75;1751874;81;25515;-53
2021/10/09 03:23:05;;;;;;;25.10;12.78;;;;;;;1.59;69.13;102288.28;1752004;81;25519;-52
2021/10/09 03:25:31;;;;;;;26.20;13.62;;;;;;;1.58;68.87;102287.95;1752033;81;25666;-54
2021/10/09 03:27:58;;;;;;;24.63;14.35;;;;;;;1.56;68.88;102288.67;1751985;81;25680;-52
2021/10/09 03:30:25;;;;;;;23.02;13.78;;;;;;;1.56;68.63;102295.34;1751962;81;27340;-54
2021/10/09 03:32:51;;;;;;;30.27;13.40;;;;;;;1.53;68.74;102289.58;1751889;81;25508;-54
2021/10/09 03:35:18;;;;;;;21.12;13.15;;;;;;;1.47;68.65;102289.88;1751991;81;25696;-54
2021/10/09 03:37:45;;;;;;;24.87;13.55;;;;;;;1.43;69.01;102291.28;1751965;81;25731;-52
2021/10/09 03:40:16;;;;;;;27.07;13.75;;;;;;;1.37;69.07;102291.58;1752064;81;25613;-54
2021/10/09 03:45:22;;;;;;;35.15;17.48;;;;;;;1.33;69.30;102293.00;1751876;81;25629;-55
2021/10/09 03:47:55;;;;;;;30.45;16.20;;;;;;;1.28;69.32;102290.11;1751119;81;25499;-55
2021/10/09 03:52:44;;;;;;;18.55;11.12;;;;;;;1.19;69.27;102284.13;1752190;81;25473;-54
2021/10/09 03:55:16;;;;;;;31.12;17.82;;;;;;;1.19;69.41;102287.28;1751978;81;27336;-52
2021/10/09 03:57:44;;;;;;;30.75;17.82;;;;;;;1.17;69.43;102285.32;1751940;81;25470;-55
2021/10/09 04:00:14;;;;;;;35.83;19.00;;;;;;;1.15;69.61;102285.52;1751972;81;25483;-52
2021/10/09 04:02:41;;;;;;;33.95;18.40;;;;;;;1.16;69.67;102283.17;1751932;81;26196;-55
2021/10/09 04:05:09;;;;;;;30.95;16.62;;;;;;;1.16;69.65;102283.17;1751976;81;25503;-51
2021/10/09 04:07:36;;;;;;;34.05;16.60;;;;;;;1.15;69.70;102282.03;1752009;81;27636;-54
2021/10/09 04:10:06;;;;;;;26.93;14.33;;;;;;;1.11;69.88;102285.61;1751869;81;25479;-54
2021/10/09 04:12:33;;;;;;;26.45;14.13;;;;;;;1.10;69.88;102286.61;1751973;81;25635;-54
2021/10/09 04:15:00;;;;;;;27.60;13.58;;;;;;;1.09;69.94;102286.30;1751890;81;25616;-53
2021/10/09 04:17:27;;;;;;;25.15;12.85;;;;;;;1.07;69.82;102284.34;1751965;81;25669;-55
2021/10/09 04:19:53;;;;;;;26.15;14.03;;;;;;;1.05;69.92;102282.39;1752021;81;27502;-54
2021/10/09 04:22:20;;;;;;;29.82;13.72;;;;;;;1.05;69.99;102285.86;1752009;81;25888;-53
2021/10/09 04:24:46;;;;;;;24.43;13.58;;;;;;;1.04;70.11;102283.39;1752117;81;25539;-52
2021/10/09 04:27:13;;;;;;;25.02;12.90;;;;;;;1.04;70.21;102286.06;1752019;81;25592;-54
2021/10/09 04:29:40;;;;;;;29.30;13.18;;;;;;;1.02;70.02;102280.95;1752097;81;25534;-54
2021/10/09 04:32:07;;;;;;;25.17;12.40;;;;;;;1.01;70.17;102282.48;1752108;81;27328;-54
2021/10/09 04:34:33;;;;;;;24.98;14.23;;;;;;;1.03;70.19;102289.24;1752000;81;25635;-54
2021/10/09 04:37:00;;;;;;;24.77;13.43;;;;;;;1.02;69.88;102286.77;1752115;81;25735;-54
2021/10/09 04:39:26;;;;;;;28.00;13.68;;;;;;;1.01;70.06;102289.95;1752016;81;25623;-52
2021/10/09 04:41:53;;;;;;;25.82;14.05;;;;;;;1.01;70.22;102292.62;1748118;81;25767;-51
2021/10/09 04:44:22;;;;;;;24.72;12.60;;;;;;;1.01;70.11;102294.47;1741976;82;25798;-54
2021/10/09 04:46:49;;;;;;;29.48;14.75;;;;;;;0.99;70.18;102288.48;1741854;81;25771;-54
2021/10/09 04:49:16;;;;;;;25.82;13.05;;;;;;;0.97;70.39;102293.20;1742005;82;25691;-55
2021/10/09 04:51:43;;;;;;;28.60;14.25;;;;;;;0.97;70.23;102295.86;1741930;82;25676;-53
2021/10/09 04:54:09;;;;;;;28.47;12.68;;;;;;;0.97;70.47;102296.70;1742016;82;25657;-54
2021/10/09 04:56:36;;;;;;;28.65;13.65;;;;;;;0.97;70.27;102294.04;1742010;82;28129;-53
2021/10/09 04:59:03;;;;;;;32.48;13.45;;;;;;;0.97;70.58;102292.71;1741877;82;25563;-53
2021/10/09 05:01:30;;;;;;;26.68;13.28;;;;;;;0.97;70.68;102294.53;1741949;82;25500;-51
2021/10/09 05:03:57;;;;;;;25.80;13.75;;;;;;;0.96;70.72;102292.90;1741953;82;25707;-54
2021/10/09 05:06:23;;;;;;;23.07;12.68;;;;;;;0.95;70.68;102289.91;1742061;82;25442;-52
2021/10/09 05:08:50;;;;;;;26.23;13.18;;;;;;;0.97;70.75;102296.70;1741919;82;27316;-55
2021/10/09 05:11:21;;;;;;;28.35;14.75;;;;;;;0.99;70.90;102297.81;1741988;82;25696;-53
2021/10/09 05:13:48;;;;;;;29.52;13.68;;;;;;;1.00;70.86;102296.29;1741955;82;25662;-54
2021/10/09 05:16:15;;;;;;;28.40;13.30;;;;;;;1.02;71.08;102302.77;1741947;82;25692;-54
2021/10/09 05:18:42;;;;;;;24.80;13.45;;;;;;;1.03;70.95;102298.56;1742014;81;25451;-55
2021/10/09 05:21:10;;;;;;;29.52;13.85;;;;;;;1.05;70.98;102293.86;1741999;81;27330;-55
2021/10/09 05:23:38;;;;;;;23.50;13.28;;;;;;;1.06;70.67;102296.85;1741887;82;25704;-56
2021/10/09 05:26:06;;;;;;;25.50;13.75;;;;;;;1.08;70.94;102297.47;1741948;81;25477;-53
2021/10/09 05:28:51;;;;;;;28.00;13.60;;;;;;;1.09;71.07;102295.63;1741947;81;25671;-58
2021/10/09 05:31:08;;;;;;;28.00;13.48;;;;;;;1.11;71.10;102300.27;1735244;82;25483;-56
2021/10/09 05:36:02;;;;;;;25.57;13.50;;;;;;;1.18;71.38;102298.98;1741890;81;25504;-52
2021/10/09 05:38:29;;;;;;;26.85;13.50;;;;;;;1.21;71.48;102305.22;1741972;82;25531;-56
2021/10/09 05:40:57;;;;;;;25.25;14.25;;;;;;;1.24;71.62;102296.84;1741867;82;25731;-55
2021/10/09 05:43:25;;;;;;;26.75;13.30;;;;;;;1.27;71.65;102295.92;1750841;81;25669;-53
2021/10/09 05:45:52;;;;;;;26.82;13.03;;;;;;;1.33;71.56;102297.00;1752013;81;27375;-56
2021/10/09 05:48:19;;;;;;;26.48;12.53;;;;;;;1.38;71.80;102297.23;1751943;81;25622;-53
2021/10/09 06:42:26;;;;;;;22.37;14.28;;;;;;;6.20;74.26;102358.66;1751957;81;25677;-53
2021/10/09 06:49:41;;;;;;;20.68;12.43;;;;;;;6.99;71.98;102346.34;1700060;84;25529;-55
2021/10/09 06:59:44;;;;;;;25.20;13.83;;;;;;;8.70;68.74;102352.06;1699904;84;25619;-55
2021/10/09 07:02:11;;;;;;;22.85;13.88;;;;;;;9.15;67.40;102355.17;1700001;84;25530;-56
2021/10/09 07:04:38;;;;;;;22.52;13.10;;;;;;;9.58;66.30;102344.65;1699890;84;27324;-55
2021/10/09 07:07:07;;;;;;;29.92;17.80;;;;;;;10.00;65.50;102351.61;1699787;84;25652;-55
2021/10/09 07:09:33;;;;;;;32.65;19.65;;;;;;;10.32;63.81;102352.23;1699923;84;25564;-55
2021/10/09 07:12:00;;;;;;;24.55;15.65;;;;;;;10.72;63.36;102360.39;1699880;84;25912;-55
2021/10/09 07:14:27;;;;;;;24.82;15.08;;;;;;;11.10;62.22;102358.49;1699940;84;25776;-55
2021/10/09 07:16:54;;;;;;;21.48;13.50;;;;;;;11.51;61.55;102364.63;1699892;84;28242;-55
2021/10/09 07:19:21;;;;;;;20.52;13.22;;;;;;;11.96;60.68;102362.66;1699834;84;25731;-55
2021/10/09 07:21:48;;;;;;;22.82;13.30;;;;;;;12.52;59.44;102359.75;1699928;84;25705;-55
2021/10/09 07:24:15;;;;;;;24.12;13.53;;;;;;;13.30;58.17;102367.21;1722427;81;25778;-55
2021/10/09 07:26:42;;;;;;;19.60;13.35;;;;;;;14.19;56.60;102364.64;1751994;81;25695;-56
2021/10/09 07:29:09;;;;;;;24.90;14.05;;;;;;;14.99;54.56;102366.72;1751984;81;27322;-56
2021/10/09 07:31:36;;;;;;;24.25;14.18;;;;;;;15.80;53.43;102367.69;1751896;81;25638;-57
2021/10/09 07:34:03;;;;;;;23.90;13.85;;;;;;;16.55;51.59;102366.53;1751986;81;25645;-56
2021/10/09 07:36:31;;;;;;;18.75;12.55;;;;;;;17.01;50.32;102367.67;1751959;81;25605;-57
2021/10/09 07:38:58;;;;;;;21.23;13.25;;;;;;;17.21;49.50;102371.95;1752056;81;25499;-56
2021/10/09 07:41:25;;;;;;;20.50;13.22;;;;;;;17.34;48.23;102370.58;1752001;81;27323;-56
2021/10/09 07:43:52;;;;;;;20.72;12.90;;;;;;;17.50;47.98;102377.94;1751774;81;25892;-57
2021/10/09 07:46:18;;;;;;;20.25;11.70;;;;;;;17.74;46.98;102373.59;1751955;81;25499;-56
2021/10/09 07:48:45;;;;;;;18.50;12.35;;;;;;;17.94;46.19;102374.27;1751909;81;25680;-56
2021/10/09 07:51:12;;;;;;;18.40;12.13;;;;;;;18.11;45.67;102380.45;1752006;81;25680;-57
2021/10/09 07:53:39;;;;;;;18.70;11.50;;;;;;;18.32;44.52;102379.42;1751968;81;27989;-57
2021/10/09 07:56:06;;;;;;;21.65;14.68;;;;;;;18.45;44.15;102374.98;1752016;81;25712;-56
2021/10/09 07:58:33;;;;;;;23.70;12.53;;;;;;;18.50;43.76;102378.97;1752099;81;25514;-57
2021/10/09 08:01:02;;;;;;;20.52;12.50;;;;;;;18.79;43.51;102383.98;1752096;81;25639;-56
2021/10/09 08:03:29;;;;;;;24.95;14.10;;;;;;;19.02;42.95;102382.04;1752260;81;25670;-56
2021/10/09 08:05:56;;;;;;;19.40;12.40;;;;;;;19.32;42.76;102385.05;1752119;81;27339;-56
2021/10/09 08:08:24;;;;;;;19.87;11.45;;;;;;;19.56;41.98;102384.65;1751956;81;27210;-56
2021/10/09 08:10:53;;;;;;;18.20;11.85;;;;;;;19.71;41.49;102385.31;1752098;81;25681;-57
2021/10/09 08:13:20;;;;;;;19.10;11.48;;;;;;;20.01;40.97;102383.59;1752219;81;25682;-57
2021/10/09 08:15:48;;;;;;;17.95;13.22;;;;;;;20.24;40.63;102387.55;1752142;81;25708;-55
2021/10/09 08:18:16;;;;;;;17.45;11.70;;;;;;;20.55;40.14;102376.91;1752369;81;27321;-56
2021/10/09 08:20:46;;;;;;;12.93;9.40;;;;;;;20.67;38.81;102386.15;1752011;81;25692;-56
2021/10/09 08:23:17;;;;;;;14.68;9.60;;;;;;;20.83;38.53;102377.37;1752088;80;25483;-58
2021/10/09 08:36:34;;;;;;;14.10;9.83;;;;;;;21.83;36.07;102375.88;1726329;83;25598;-56
2021/10/09 08:38:59;;;;;;;14.58;9.45;;;;;;;22.13;36.08;102370.86;1725942;83;25627;-58
2021/10/09 08:41:28;;;;;;;17.05;10.32;;;;;;;22.50;35.38;102370.45;1752118;81;25467;-57
2021/10/09 08:43:55;;;;;;;20.92;13.75;;;;;;;22.84;34.85;102375.93;1752192;81;27270;-56
2021/10/09 08:46:22;;;;;;;12.58;9.45;;;;;;;23.04;34.42;102368.71;1751978;81;25660;-56
2021/10/09 08:48:52;;;;;;;14.40;8.13;;;;;;;23.30;33.71;102363.66;1752105;81;25471;-56
2021/10/09 08:51:28;;;;;;;10.80;7.80;;;;;;;23.57;33.16;102363.30;1752052;81;26586;-56
2021/10/09 08:54:04;;;;;;;15.00;9.88;;;;;;;23.72;32.92;102360.36;1752085;81;25479;-56
2021/10/09 08:56:42;;;;;;;13.85;8.55;;;;;;;23.91;32.05;102355.64;1752066;81;27311;-56
2021/10/09 08:59:16;;;;;;;13.58;7.75;;;;;;;23.93;31.38;102360.23;1752041;81;25643;-56
2021/10/09 09:26:46;;;;;;;11.20;7.12;;;;;;;24.97;27.70;102354.70;1718427;83;25503;-57
2021/10/09 09:40:13;;;;;;;11.48;6.60;;;;;;;24.93;25.99;102349.68;1688167;85;25737;-57
2021/10/09 09:42:53;;;;;;;8.70;5.95;;;;;;;24.94;26.09;102348.50;1720529;81;25519;-56
2021/10/09 09:45:26;;;;;;;9.55;7.20;;;;;;;25.02;25.63;102347.52;1735657;82;25617;-56
2021/10/09 09:47:56;;;;;;;7.80;6.62;;;;;;;25.16;25.75;102334.59;1731701;82;25553;-56
2021/10/09 09:50:24;;;;;;;8.48;6.47;;;;;;;25.28;25.92;102338.65;1731703;81;27930;-57
2021/10/09 09:52:53;;;;;;;7.93;6.20;;;;;;;25.48;25.75;102344.24;1731880;82;25697;-57
2021/10/09 09:55:20;;;;;;;7.75;6.80;;;;;;;25.68;25.84;102333.98;1731921;82;25471;-56
2021/10/09 09:57:50;;;;;;;11.18;7.20;;;;;;;25.76;25.05;102329.38;1731671;82;25606;-56
2021/10/09 10:00:17;;;;;;;8.68;6.37;;;;;;;25.69;24.59;102328.09;1731729;82;25719;-56
2021/10/09 10:02:51;;;;;;;9.48;6.95;;;;;;;25.64;24.71;102335.86;1731702;82;28022;-56
2021/10/09 10:05:27;;;;;;;10.60;6.62;;;;;;;25.47;24.53;102329.59;1731646;82;25666;-56
2021/10/09 10:07:53;;;;;;;9.98;6.85;;;;;;;25.34;24.43;102315.06;1731717;82;25473;-56
2021/10/09 10:10:20;;;;;;;8.90;6.67;;;;;;;25.29;23.93;102318.70;1731628;82;25637;-56
2021/10/09 10:12:56;;;;;;;8.38;6.35;;;;;;;25.16;24.14;102320.74;1731722;82;25460;-57
2021/10/09 10:15:29;;;;;;;9.75;7.37;;;;;;;25.17;24.61;102316.23;1731618;82;27411;-56
2021/10/09 10:17:56;;;;;;;8.38;6.95;;;;;;;25.33;24.39;102309.29;1730891;82;25666;-56
2021/10/09 10:20:44;;;;;;;7.95;7.15;;;;;;;25.25;23.73;102306.13;1731647;82;25496;-58
2021/10/09 10:23:10;;;;;;;9.73;6.28;;;;;;;25.15;23.67;102307.48;1731582;82;25607;-57
2021/10/09 10:25:38;;;;;;;8.60;6.72;;;;;;;24.85;23.47;102316.86;1731692;82;25703;-57
2021/10/09 10:28:16;;;;;;;7.37;6.17;;;;;;;24.71;23.15;102315.14;1731639;81;27320;-57
2021/10/09 10:30:45;;;;;;;9.58;6.50;;;;;;;24.49;23.35;102315.15;1731536;82;25499;-57
2021/10/09 10:33:19;;;;;;;8.33;6.47;;;;;;;24.16;23.31;102312.09;1731658;82;25697;-57
2021/10/09 10:35:47;;;;;;;9.85;6.50;;;;;;;24.16;24.40;102313.48;1731647;82;26372;-57
2021/10/09 10:38:32;;;;;;;9.90;6.75;;;;;;;24.15;23.83;102316.83;1731657;82;25704;-58
2021/10/09 10:40:58;;;;;;;7.95;7.00;;;;;;;23.95;24.05;102311.73;1729528;82;27520;-56
2021/10/09 10:46:36;;;;;;;8.13;6.97;;;;;;;24.17;24.09;102299.30;1736658;82;25877;-57
2021/10/09 10:54:36;;;;;;;10.35;7.47;;;;;;;24.30;23.45;102290.96;1723460;82;27376;-57
2021/10/09 10:57:11;;;;;;;8.95;7.50;;;;;;;24.05;23.69;102297.99;1688077;85;25528;-57
2021/10/09 10:59:51;;;;;;;9.83;7.00;;;;;;;24.13;23.84;102292.89;1718469;83;25582;-57
2021/10/09 11:02:33;;;;;;;8.95;6.47;;;;;;;24.49;24.74;102282.75;1688138;85;27800;-57
2021/10/09 11:05:03;;;;;;;10.98;7.78;;;;;;;24.88;24.27;102281.55;1718492;83;25685;-56
2021/10/09 11:07:36;;;;;;;10.15;7.42;;;;;;;25.31;24.28;102278.98;1688125;85;27339;-57
2021/10/09 11:10:19;;;;;;;9.78;7.97;;;;;;;25.27;23.11;102285.83;1718352;83;25531;-58
2021/10/09 11:12:51;;;;;;;9.48;7.60;;;;;;;25.11;23.58;102286.41;1688129;85;25644;-57
2021/10/09 11:15:23;;;;;;;12.03;7.62;;;;;;;25.28;23.65;102280.49;1718430;83;25704;-57
2021/10/09 11:18:02;;;;;;;8.60;7.30;;;;;;;25.54;23.84;102268.00;1726228;83;25508;-57
2021/10/09 11:20:35;;;;;;;;;;;;;;;25.50;22.33;102272.65;1754613;81;27997;-57
2021/10/09 11:23:08;;;;;;;12.58;9.63;;;;;;;25.09;23.03;102277.67;1729137;81;25485;-56
2021/10/09 11:25:41;;;;;;;9.13;6.80;;;;;;;25.04;23.07;102266.88;1751989;81;25538;-56
2021/10/09 11:28:22;;;;;;;12.80;7.78;;;;;;;24.79;22.65;102267.91;1751912;81;26243;-56
2021/10/09 11:30:49;;;;;;;8.40;6.95;;;;;;;24.70;23.05;102267.87;1723966;83;25580;-56
2021/10/09 11:33:26;;;;;;;8.05;6.25;;;;;;;24.73;23.05;102255.50;1705999;83;27322;-56
2021/10/09 11:35:55;;;;;;;10.65;8.35;;;;;;;24.79;23.23;102259.61;1704560;83;25848;-57
2021/10/09 11:38:28;;;;;;;;;;;;;;;24.99;23.06;102256.88;1726641;82;25509;-56
2021/10/09 11:43:49;;;;;;;9.15;6.47;;;;;;;25.38;23.34;102256.97;1704589;83;25601;-57
2021/10/09 11:55:26;;;;;;;8.38;6.67;;;;;;;25.63;21.89;102243.64;1705595;83;26476;-56
2021/10/09 11:57:55;;;;;;;11.70;7.50;;;;;;;25.42;22.62;102237.09;1703955;83;25551;-57
2021/10/09 12:00:37;;;;;;;14.15;7.92;;;;;;;25.31;22.60;102239.62;1724179;82;27437;-57
2021/10/09 12:03:31;;;;;;;17.50;7.12;;;;;;;25.31;22.61;102240.20;1704658;83;25615;-58
2021/10/09 12:06:07;;;;;;;8.40;7.10;;;;;;;25.30;22.76;102234.44;1704314;83;25567;-57
2021/10/09 12:08:39;;;;;;;10.15;7.62;;;;;;;25.52;22.78;102237.06;1713402;83;26120;-57
2021/10/09 12:11:23;;;;;;;7.10;6.37;;;;;;;25.66;22.35;102242.09;1687516;84;25491;-57
2021/10/09 12:14:09;;;;;;;8.70;7.15;;;;;;;25.34;22.66;102233.95;1718582;83;27324;-57
2021/10/09 12:16:43;;;;;;;9.60;7.58;;;;;;;25.50;22.65;102230.50;1688165;85;25642;-57
2021/10/09 12:19:14;;;;;;;10.85;7.65;;;;;;;25.44;22.48;102233.37;1718584;83;25508;-58
2021/10/09 12:21:55;;;;;;;10.40;7.58;;;;;;;25.52;22.37;102231.53;1719427;82;25636;-57
2021/10/09 12:24:25;;;;;;;9.23;8.10;;;;;;;25.43;22.48;102224.83;1688271;85;25680;-56
2021/10/09 12:27:13;;;;;;;12.45;8.23;;;;;;;25.54;22.93;102223.67;1718539;83;27954;-55
2021/10/09 12:30:08;;;;;;;13.00;8.30;;;;;;;25.49;22.67;102215.66;1726458;83;25621;-57
2021/10/09 12:32:49;;;;;;;9.13;7.87;;;;;;;25.52;22.85;102214.91;1725104;83;25646;-56
2021/10/09 12:35:23;;;;;;;12.13;8.28;;;;;;;25.62;22.75;102217.67;1724403;83;26612;-56
2021/10/09 12:38:10;;;;;;;13.95;9.28;;;;;;;25.70;22.55;102210.52;1726346;83;25627;-58
2021/10/09 12:40:44;;;;;;;13.53;10.30;;;;;;;25.81;22.59;102216.84;1752059;81;27328;-58
2021/10/09 12:43:15;;;;;;;15.98;10.48;;;;;;;25.84;22.45;102209.19;1752062;81;25696;-58
2021/10/09 12:45:42;;;;;;;11.53;9.65;;;;;;;25.99;22.58;102206.13;1742403;80;25667;-57
2021/10/09 12:48:09;;;;;;;12.53;8.75;;;;;;;26.01;22.62;102204.56;1741912;82;27763;-56
2021/10/09 12:50:39;;;;;;;12.23;8.28;;;;;;;26.01;22.42;102210.11;1742029;81;25609;-57
2021/10/09 12:53:07;;;;;;;11.57;8.60;;;;;;;25.85;21.92;102201.89;1742002;82;26996;-57
2021/10/09 12:55:36;;;;;;;16.60;9.18;;;;;;;25.69;22.11;102199.23;1741905;82;25625;-57
2021/10/09 12:58:07;;;;;;;9.45;7.95;;;;;;;25.69;22.32;102205.34;1742073;82;25220;-57
2021/10/09 13:00:35;;;;;;;15.90;8.35;;;;;;;25.52;22.00;102196.34;1742066;81;25586;-57
2021/10/09 13:03:03;;;;;;;9.15;7.12;;;;;;;25.08;22.31;102198.55;1742126;82;25538;-57
2021/10/09 13:05:33;;;;;;;13.28;8.08;;;;;;;25.04;22.61;102201.83;1741961;82;27321;-57
2021/10/09 13:08:01;;;;;;;10.70;7.90;;;;;;;24.95;22.79;102190.97;1741876;82;25452;-56
2021/10/09 13:10:32;;;;;;;14.10;11.40;;;;;;;24.96;22.71;102188.40;1742188;82;25686;-57
2021/10/09 13:12:57;;;;;;;14.83;10.18;;;;;;;24.86;23.00;102182.87;1741830;81;25620;-58
2021/10/09 13:15:25;;;;;;;13.80;11.08;;;;;;;24.89;22.98;102188.25;1742018;82;25471;-58
2021/10/09 13:17:52;;;;;;;14.33;10.85;;;;;;;24.87;23.16;102179.52;1741981;82;27385;-57
2021/10/09 13:20:19;;;;;;;8.43;6.87;;;;;;;24.82;22.97;102188.10;1741884;81;25542;-58
2021/10/09 13:22:47;;;;;;;10.28;8.20;;;;;;;24.60;22.93;102186.22;1741960;82;25708;-57
2021/10/09 13:25:14;;;;;;;8.98;7.60;;;;;;;24.58;23.17;102180.25;1741918;82;25615;-58
2021/10/09 13:27:40;;;;;;;8.88;7.92;;;;;;;24.68;23.64;102177.52;1741974;82;25688;-58
2021/10/09 13:30:09;;;;;;;10.48;7.83;;;;;;;24.81;23.51;102173.47;1741978;82;27983;-58
2021/10/09 13:32:36;;;;;;;10.82;7.47;;;;;;;24.71;23.17;102169.89;1742007;82;33195;-56
2021/10/09 13:35:03;;;;;;;10.48;8.93;;;;;;;24.57;23.54;102172.55;1741954;82;25622;-57
2021/10/09 13:37:36;;;;;;;11.25;9.15;;;;;;;24.46;23.45;102172.04;1741928;82;25608;-58
2021/10/09 13:39:59;;;;;;;13.50;8.93;;;;;;;24.35;23.51;102174.56;1741137;82;25554;-57
2021/10/09 13:42:25;;;;;;;8.58;7.60;;;;;;;24.26;23.65;102165.63;1741964;81;27989;-57
2021/10/09 13:44:52;;;;;;;10.82;8.33;;;;;;;24.19;23.66;102164.28;1746572;81;25447;-57
2021/10/09 13:47:19;;;;;;;12.98;10.90;;;;;;;24.12;23.57;102161.94;1752018;81;25494;-58
2021/10/09 13:49:47;;;;;;;10.95;8.50;;;;;;;23.90;23.81;102165.53;1752007;81;26286;-58
2021/10/09 13:52:15;;;;;;;9.83;7.95;;;;;;;23.86;23.92;102161.30;1752019;81;25546;-56
2021/10/09 13:54:42;;;;;;;13.22;10.58;;;;;;;23.77;24.00;102157.88;1751991;81;27330;-57